Time;durP1;ratioP1;P1;durP2;ratioP2;P2;SDS_P1;SDS_P2;PMS_P1;PMS_P2;Temp;Humidity;BMP_temperature;BMP_pressure;BME280_temperature;BME280_humidity;BME280_pressure;Samples;Min_cycle;Max_cycle;Signal;HPM_P1;HPM_P2
2023/01/29 00:01:58;;;;;;;17.20;9.73;;;6.00;99.90;;;;;;5075671;28;20083;-65
2023/01/29 00:04:25;;;;;;;19.15;9.68;;;6.00;99.90;;;;;;5092175;28;20054;-64
2023/01/29 00:06:51;;;;;;;22.92;11.65;;;6.00;99.90;;;;;;5074902;28;20077;-65
2023/01/29 00:09:18;;;;;;;18.38;10.88;;;6.00;99.90;;;;;;5058738;28;20533;-67
2023/01/29 00:11:45;;;;;;;16.88;9.68;;;6.00;99.90;;;;;;5079949;28;20056;-66
2023/01/29 00:14:13;;;;;;;16.95;10.25;;;5.90;99.90;;;;;;5093104;28;20048;-66
2023/01/29 00:16:40;;;;;;;16.58;10.82;;;5.90;99.90;;;;;;5071931;28;20055;-66
2023/01/29 00:19:06;;;;;;;19.85;10.18;;;5.90;99.90;;;;;;5071970;28;20048;-65
2023/01/29 00:21:33;;;;;;;19.15;9.85;;;5.90;99.90;;;;;;5081716;28;20056;-66
2023/01/29 00:24:00;;;;;;;13.88;8.32;;;5.90;99.90;;;;;;5091182;28;20107;-67
2023/01/29 00:26:27;;;;;;;16.02;10.02;;;5.80;99.90;;;;;;5088175;28;20353;-66
2023/01/29 00:28:56;;;;;;;19.35;10.45;;;5.80;99.90;;;;;;5054555;28;20123;-65
2023/01/29 00:31:24;;;;;;;20.75;9.77;;;5.80;99.90;;;;;;5077267;28;20040;-66
2023/01/29 00:33:51;;;;;;;15.32;9.88;;;5.80;99.90;;;;;;5112299;28;20083;-66
2023/01/29 00:36:19;;;;;;;19.00;11.05;;;5.80;99.90;;;;;;5090784;28;20051;-66
2023/01/29 00:38:53;;;;;;;18.25;10.40;;;5.70;99.90;;;;;;5053051;28;20094;-65
2023/01/29 00:46:51;;;;;;;20.73;9.18;;;5.70;99.90;;;;;;5095656;28;20123;-65
2023/01/29 00:49:18;;;;;;;17.50;10.60;;;5.70;99.90;;;;;;5104282;28;20043;-67
2023/01/29 00:52:22;;;;;;;19.80;10.73;;;5.70;99.90;;;;;;5090101;28;20043;-65
2023/01/29 00:54:32;;;;;;;18.92;9.55;;;5.70;99.90;;;;;;5103633;28;20402;-65
2023/01/29 00:56:59;;;;;;;20.70;10.48;;;5.70;99.90;;;;;;5102496;28;20036;-65
2023/01/29 00:59:25;;;;;;;20.70;10.23;;;5.60;99.90;;;;;;5107926;28;20075;-65
2023/01/29 01:04:38;;;;;;;22.90;12.00;;;5.60;99.90;;;;;;5091840;28;20425;-65
2023/01/29 01:07:05;;;;;;;21.95;10.65;;;5.60;99.90;;;;;;5104474;28;20035;-65
2023/01/29 01:12:20;;;;;;;19.38;10.13;;;5.60;99.90;;;;;;5104886;28;20126;-65
2023/01/29 01:14:47;;;;;;;23.77;12.05;;;5.60;99.90;;;;;;5070200;28;20074;-65
2023/01/29 01:17:14;;;;;;;22.33;11.93;;;5.60;99.90;;;;;;5112223;28;20498;-65
2023/01/29 01:19:41;;;;;;;18.95;11.05;;;5.50;99.90;;;;;;5105924;28;20134;-66
2023/01/29 01:22:08;;;;;;;22.58;13.18;;;5.50;99.90;;;;;;5111063;28;20051;-66
2023/01/29 01:24:35;;;;;;;19.90;13.07;;;5.50;99.90;;;;;;5098106;28;20046;-66
2023/01/29 01:27:02;;;;;;;19.63;11.73;;;5.50;99.90;;;;;;5095363;28;20413;-66
2023/01/29 01:29:28;;;;;;;22.15;11.90;;;5.60;99.90;;;;;;5099397;28;20116;-65
2023/01/29 01:31:55;;;;;;;20.50;11.70;;;5.50;99.90;;;;;;5113602;28;20115;-65
2023/01/29 01:34:22;;;;;;;20.77;12.35;;;5.50;99.90;;;;;;5065431;28;20082;-65
2023/01/29 01:36:49;;;;;;;23.10;13.00;;;5.50;99.90;;;;;;5115047;28;20078;-65
2023/01/29 01:39:16;;;;;;;22.15;12.45;;;5.40;99.90;;;;;;5092422;28;20047;-65
2023/01/29 01:41:42;;;;;;;23.45;13.48;;;5.50;99.90;;;;;;5095269;28;20066;-65
2023/01/29 01:44:47;;;;;;;25.00;12.88;;;5.50;99.90;;;;;;5098569;28;20064;-64
2023/01/29 01:47:14;;;;;;;27.25;12.80;;;5.50;99.90;;;;;;5094371;28;20123;-65
2023/01/29 01:49:41;;;;;;;22.88;12.65;;;5.50;99.90;;;;;;5098575;28;20446;-65
2023/01/29 01:52:08;;;;;;;21.55;12.15;;;5.60;99.90;;;;;;5096331;28;20178;-66
2023/01/29 01:54:35;;;;;;;21.50;12.68;;;5.50;99.90;;;;;;5090945;28;20460;-67
2023/01/29 01:57:08;;;;;;;24.70;12.68;;;5.60;99.90;;;;;;5114932;28;20052;-67
2023/01/29 01:59:35;;;;;;;21.75;12.27;;;5.60;99.90;;;;;;5075867;28;20047;-63
2023/01/29 02:10:18;;;;;;;20.30;13.10;;;5.60;99.90;;;;;;5087113;28;20138;-64
2023/01/29 02:12:44;;;;;;;29.02;14.00;;;5.60;99.90;;;;;;5061047;28;20112;-65
2023/01/29 02:15:11;;;;;;;22.85;12.82;;;5.50;99.90;;;;;;5086921;28;20525;-64
2023/01/29 02:17:38;;;;;;;21.33;12.57;;;5.50;99.90;;;;;;5092073;28;20154;-64
2023/01/29 02:20:17;;;;;;;28.55;13.15;;;5.50;99.90;;;;;;5093674;28;20119;-65
2023/01/29 02:22:58;;;;;;;21.55;12.27;;;5.50;99.90;;;;;;5076177;28;20052;-65
2023/01/29 02:25:43;;;;;;;20.60;11.68;;;5.50;99.90;;;;;;5101242;28;20422;-65
2023/01/29 02:28:20;;;;;;;20.23;11.07;;;5.50;99.90;;;;;;5102505;28;20079;-65
2023/01/29 02:31:00;;;;;;;25.45;12.23;;;5.50;99.90;;;;;;5075732;28;20062;-65
2023/01/29 02:33:38;;;;;;;18.27;12.18;;;5.50;99.90;;;;;;5054152;28;20390;-65
2023/01/29 02:36:36;;;;;;;28.17;12.20;;;5.50;99.90;;;;;;5060622;28;20040;-65
2023/01/29 02:39:38;;;;;;;21.15;11.25;;;5.50;99.90;;;;;;5056050;28;20067;-65
2023/01/29 02:42:27;;;;;;;23.50;11.50;;;5.50;99.90;;;;;;4702593;28;10000353;-64
2023/01/29 02:45:05;;;;;;;18.48;11.02;;;5.50;99.90;;;;;;5056110;28;20044;-65
2023/01/29 02:47:54;;;;;;;26.88;13.52;;;5.50;99.90;;;;;;5052134;28;20088;-65
2023/01/29 02:50:38;;;;;;;20.50;11.70;;;5.50;99.90;;;;;;5058172;28;20379;-64
2023/01/29 02:53:09;;;;;;;24.83;12.67;;;5.40;99.90;;;;;;5066850;28;20056;-64
2023/01/29 02:55:58;;;;;;;25.95;12.80;;;5.30;99.90;;;;;;5074003;28;20040;-64
2023/01/29 02:58:42;;;;;;;21.88;13.32;;;5.30;99.90;;;;;;5083474;28;20056;-65
2023/01/29 03:01:12;;;;;;;27.35;13.13;;;5.30;99.90;;;;;;5073622;28;20040;-65
2023/01/29 03:03:44;;;;;;;24.88;12.20;;;5.30;99.90;;;;;;5067303;28;20055;-65
2023/01/29 03:06:18;;;;;;;28.27;12.32;;;5.30;99.90;;;;;;5075400;28;20407;-65
2023/01/29 03:09:03;;;;;;;26.52;11.70;;;5.40;99.90;;;;;;5071622;28;20098;-66
2023/01/29 03:11:41;;;;;;;22.63;12.40;;;5.40;99.90;;;;;;5074952;28;20135;-65
2023/01/29 03:14:16;;;;;;;22.80;13.27;;;5.40;99.90;;;;;;5056641;28;20048;-66
2023/01/29 03:16:52;;;;;;;22.83;12.95;;;5.40;99.90;;;;;;5075712;28;20116;-66
2023/01/29 03:19:24;;;;;;;27.42;13.82;;;5.40;99.90;;;;;;5079619;28;20285;-66
2023/01/29 03:22:00;;;;;;;25.70;13.00;;;5.40;99.90;;;;;;5058650;28;20085;-66
2023/01/29 03:33:14;;;;;;;24.95;13.00;;;5.40;99.90;;;;;;5072710;28;20653;-66
2023/01/29 03:35:47;;;;;;;22.35;12.80;;;5.30;99.90;;;;;;5074880;28;20072;-66
2023/01/29 03:38:14;;;;;;;32.60;13.43;;;5.30;99.90;;;;;;5089972;28;20126;-65
2023/01/29 03:40:53;;;;;;;27.77;14.52;;;5.40;99.90;;;;;;5075183;28;20049;-65
2023/01/29 03:43:38;;;;;;;24.45;12.82;;;5.40;99.90;;;;;;5087372;28;20482;-65
2023/01/29 03:46:27;;;;;;;25.75;14.10;;;5.40;99.90;;;;;;5060497;28;20156;-65
2023/01/29 03:48:57;;;;;;;27.02;13.80;;;5.40;99.90;;;;;;5074478;28;20056;-65
2023/01/29 03:51:33;;;;;;;26.15;13.60;;;5.40;99.90;;;;;;5067011;28;20072;-66
2023/01/29 03:54:20;;;;;;;21.25;13.07;;;5.50;99.90;;;;;;5088036;28;20479;-66
2023/01/29 03:56:56;;;;;;;25.52;14.00;;;5.50;99.90;;;;;;5092988;28;20483;-66
2023/01/29 03:59:34;;;;;;;31.35;13.35;;;5.50;99.90;;;;;;5082430;28;20056;-66
2023/01/29 04:02:04;;;;;;;23.38;12.38;;;5.50;99.90;;;;;;5096016;28;20491;-66
2023/01/29 04:04:35;;;;;;;25.15;12.75;;;5.40;99.90;;;;;;5087821;28;20469;-66
2023/01/29 04:07:12;;;;;;;25.52;13.10;;;5.40;99.90;;;;;;5073167;28;20048;-65
2023/01/29 04:09:48;;;;;;;27.80;15.77;;;5.50;99.90;;;;;;5076487;28;20075;-65
2023/01/29 04:12:19;;;;;;;22.40;12.80;;;5.50;99.90;;;;;;5079915;28;20511;-65
2023/01/29 04:14:46;;;;;;;27.83;15.02;;;5.50;99.90;;;;;;5075969;28;20044;-65
2023/01/29 04:17:15;;;;;;;23.00;12.85;;;5.50;99.90;;;;;;5094799;28;20058;-66
2023/01/29 04:19:42;;;;;;;25.38;12.90;;;5.40;99.90;;;;;;5083714;28;20303;-65
2023/01/29 04:22:12;;;;;;;28.50;13.95;;;5.40;99.90;;;;;;5094521;28;20529;-66
2023/01/29 04:24:40;;;;;;;25.92;13.63;;;5.50;99.90;;;;;;5091707;28;20071;-66
2023/01/29 04:27:39;;;;;;;25.88;12.73;;;5.50;99.90;;;;;;5079039;28;20116;-66
2023/01/29 04:30:21;;;;;;;27.00;13.20;;;5.40;99.90;;;;;;5091658;28;20477;-65
2023/01/29 04:33:14;;;;;;;25.60;14.13;;;5.40;99.90;;;;;;5079771;28;20503;-66
2023/01/29 04:35:52;;;;;;;25.85;14.20;;;5.40;99.90;;;;;;5091653;28;20048;-65
2023/01/29 04:38:29;;;;;;;23.05;13.48;;;5.40;99.90;;;;;;5080742;28;20468;-65
2023/01/29 04:41:02;;;;;;;28.08;13.10;;;5.40;99.90;;;;;;5089879;28;20048;-66
2023/01/29 04:43:36;;;;;;;24.80;14.00;;;5.40;99.90;;;;;;5104008;28;20055;-66
2023/01/29 04:46:50;;;;;;;26.75;13.95;;;5.40;99.90;;;;;;5109467;28;20039;-65
2023/01/29 04:49:41;;;;;;;22.90;12.55;;;5.40;99.90;;;;;;4999839;28;20113;-66
2023/01/29 04:52:10;;;;;;;27.45;14.05;;;5.40;99.90;;;;;;5112475;28;20110;-65
2023/01/29 04:55:00;;;;;;;25.73;14.20;;;5.40;99.90;;;;;;5101958;28;20040;-65
2023/01/29 04:57:33;;;;;;;26.73;12.90;;;5.40;99.90;;;;;;5090794;28;20056;-66
2023/01/29 05:00:10;;;;;;;21.30;13.23;;;5.40;99.90;;;;;;5086883;28;20063;-66
2023/01/29 05:02:38;;;;;;;21.77;13.35;;;5.40;99.90;;;;;;5080008;28;20086;-67
2023/01/29 05:05:05;;;;;;;24.10;13.07;;;5.40;99.90;;;;;;5084742;28;20118;-65
2023/01/29 05:07:32;;;;;;;30.70;14.55;;;5.40;99.90;;;;;;5070469;28;20043;-65
2023/01/29 05:09:59;;;;;;;24.38;12.52;;;5.40;99.90;;;;;;5078003;28;20044;-65
2023/01/29 05:12:26;;;;;;;23.73;13.73;;;5.40;99.90;;;;;;5095783;28;20138;-66
2023/01/29 05:14:53;;;;;;;23.42;13.38;;;5.40;99.90;;;;;;5080530;28;20048;-66
2023/01/29 05:17:20;;;;;;;27.98;13.70;;;5.40;99.90;;;;;;5089626;28;20059;-66
2023/01/29 05:19:47;;;;;;;22.13;13.35;;;5.50;99.90;;;;;;5096289;28;20135;-65
2023/01/29 05:22:15;;;;;;;21.85;11.73;;;5.40;99.90;;;;;;5102602;28;20040;-64
2023/01/29 05:24:42;;;;;;;19.85;11.80;;;5.40;99.90;;;;;;5097473;28;20150;-65
2023/01/29 05:30:01;;;;;;;25.92;11.90;;;5.50;99.90;;;;;;5100897;28;20139;-65
2023/01/29 05:32:27;;;;;;;25.15;12.65;;;5.50;99.90;;;;;;5107863;28;20087;-65
2023/01/29 05:34:54;;;;;;;20.63;12.80;;;5.50;99.90;;;;;;5060540;28;20044;-65
2023/01/29 05:37:21;;;;;;;25.25;12.45;;;5.50;99.90;;;;;;5100498;28;20052;-65
2023/01/29 05:39:48;;;;;;;25.33;12.20;;;5.50;99.90;;;;;;5115614;28;20039;-65
2023/01/29 05:42:14;;;;;;;28.10;12.40;;;5.50;99.90;;;;;;5111143;28;20070;-65
2023/01/29 05:44:41;;;;;;;22.77;11.98;;;5.50;99.90;;;;;;5078918;28;20541;-65
2023/01/29 05:47:08;;;;;;;28.13;12.55;;;5.50;99.90;;;;;;5099385;28;20123;-65
2023/01/29 05:49:34;;;;;;;23.15;12.50;;;5.50;99.90;;;;;;5109608;28;20044;-66
2023/01/29 05:52:04;;;;;;;21.23;11.00;;;5.50;99.90;;;;;;5112886;28;20054;-64
2023/01/29 05:54:31;;;;;;;21.08;12.05;;;5.50;99.90;;;;;;5087302;28;20126;-65
2023/01/29 05:56:57;;;;;;;24.90;12.18;;;5.50;99.90;;;;;;5093507;28;20202;-65
2023/01/29 05:59:24;;;;;;;22.70;10.90;;;5.40;99.90;;;;;;5106017;28;20051;-64
2023/01/29 06:01:51;;;;;;;22.45;12.27;;;5.40;99.90;;;;;;5111366;28;20044;-65
2023/01/29 06:04:18;;;;;;;21.33;12.27;;;5.50;99.90;;;;;;5106146;28;20048;-66
2023/01/29 06:06:44;;;;;;;26.25;11.07;;;5.50;99.90;;;;;;5094942;28;20132;-67
2023/01/29 06:09:11;;;;;;;18.27;10.45;;;5.50;99.90;;;;;;5108081;28;20051;-66
2023/01/29 06:11:38;;;;;;;23.65;12.80;;;5.50;99.90;;;;;;5094783;28;20160;-66
2023/01/29 06:14:05;;;;;;;17.77;10.23;;;5.50;99.90;;;;;;5084682;28;20126;-66
2023/01/29 06:16:31;;;;;;;19.55;10.98;;;5.60;99.90;;;;;;5114711;28;20130;-67
2023/01/29 06:18:58;;;;;;;22.15;10.88;;;5.50;99.90;;;;;;5109828;28;20092;-66
2023/01/29 06:21:25;;;;;;;23.63;10.95;;;5.60;99.90;;;;;;5080453;28;20043;-65
2023/01/29 06:23:52;;;;;;;19.20;10.77;;;5.50;99.90;;;;;;5075603;28;20130;-65
2023/01/29 06:26:19;;;;;;;17.77;9.68;;;5.50;99.90;;;;;;5076878;28;20059;-65
2023/01/29 06:28:49;;;;;;;18.05;9.25;;;5.50;99.90;;;;;;5106628;28;20044;-65
2023/01/29 06:31:16;;;;;;;17.13;9.60;;;5.60;99.90;;;;;;5096431;28;20051;-64
2023/01/29 06:34:03;;;;;;;16.33;9.10;;;5.60;99.90;;;;;;5103510;28;20048;-65
2023/01/29 06:36:30;;;;;;;13.13;8.32;;;5.70;99.90;;;;;;5112044;28;20078;-65
2023/01/29 06:38:56;;;;;;;11.85;7.25;;;5.50;99.90;;;;;;5109803;28;20122;-65
2023/01/29 06:41:24;;;;;;;14.88;8.20;;;5.50;99.90;;;;;;5096226;28;20139;-65
2023/01/29 06:43:51;;;;;;;12.13;7.13;;;5.50;99.90;;;;;;5094627;28;20074;-65
2023/01/29 06:46:18;;;;;;;13.90;8.27;;;5.50;99.90;;;;;;5101448;28;20134;-65
2023/01/29 06:48:44;;;;;;;13.10;7.97;;;5.50;99.90;;;;;;5081167;28;20450;-65
2023/01/29 06:51:11;;;;;;;12.82;7.40;;;5.50;99.90;;;;;;5106571;28;20054;-66
2023/01/29 06:53:38;;;;;;;12.43;7.47;;;5.50;99.90;;;;;;5091735;28;20051;-65
2023/01/29 06:56:05;;;;;;;12.18;7.43;;;5.60;99.90;;;;;;5070973;28;20111;-65
2023/01/29 06:58:32;;;;;;;11.13;7.28;;;5.50;99.90;;;;;;5092867;28;20039;-65
2023/01/29 07:01:06;;;;;;;14.50;8.43;;;5.50;99.90;;;;;;5113158;28;20044;-64
2023/01/29 07:03:33;;;;;;;;;;;5.50;99.90;;;;;;5096471;28;20077;-65
2023/01/29 07:06:00;;;;;;;15.52;7.43;;;5.50;99.90;;;;;;5087200;28;19962;-66
2023/01/29 07:08:27;;;;;;;12.05;6.18;;;5.60;99.90;;;;;;5097616;28;20107;-64
2023/01/29 07:11:00;;;;;;;11.10;6.60;;;5.50;99.90;;;;;;5090904;28;20052;-65
2023/01/29 07:13:27;;;;;;;12.32;6.78;;;5.60;99.90;;;;;;5096397;28;20052;-65
2023/01/29 07:15:56;;;;;;;10.73;6.35;;;5.60;99.90;;;;;;5092279;28;20035;-65
2023/01/29 07:18:23;;;;;;;11.70;6.32;;;5.60;99.90;;;;;;5098460;28;20051;-66
2023/01/29 07:20:50;;;;;;;11.40;6.47;;;5.70;99.90;;;;;;5096336;28;20050;-65
2023/01/29 07:23:17;;;;;;;11.38;6.60;;;5.60;99.90;;;;;;5095606;28;20048;-64
2023/01/29 07:25:44;;;;;;;11.40;6.43;;;5.60;99.90;;;;;;5090724;28;20050;-65
2023/01/29 07:28:10;;;;;;;12.77;5.88;;;5.60;99.90;;;;;;5060938;28;20111;-66
2023/01/29 07:30:38;;;;;;;10.48;5.82;;;5.60;99.90;;;;;;5099585;28;20047;-66
2023/01/29 07:33:05;;;;;;;11.85;6.40;;;5.60;99.90;;;;;;5092453;28;20506;-66
2023/01/29 07:35:37;;;;;;;9.10;5.72;;;5.60;99.90;;;;;;5108976;28;20047;-66
2023/01/29 07:38:05;;;;;;;8.40;5.45;;;5.60;99.90;;;;;;5064276;28;20051;-66
2023/01/29 07:40:32;;;;;;;9.93;6.00;;;5.60;99.90;;;;;;5078842;28;20502;-66
2023/01/29 07:42:59;;;;;;;14.30;6.72;;;5.60;99.90;;;;;;5087955;28;20130;-65
2023/01/29 07:45:27;;;;;;;8.50;5.90;;;5.50;99.90;;;;;;5075289;28;20075;-66
2023/01/29 07:47:54;;;;;;;12.23;5.95;;;5.60;99.90;;;;;;5085054;28;20043;-66
2023/01/29 07:50:22;;;;;;;23.70;6.68;;;5.60;99.90;;;;;;5110445;28;20048;-66
2023/01/29 07:52:49;;;;;;;13.68;6.20;;;5.50;99.90;;;;;;5051770;28;20190;-66
2023/01/29 07:55:16;;;;;;;11.90;5.63;;;5.60;99.90;;;;;;4747842;28;10000424;-66
2023/01/29 07:57:43;;;;;;;11.68;5.22;;;5.50;99.90;;;;;;5083248;28;20273;-66
2023/01/29 08:00:10;;;;;;;8.63;5.38;;;5.50;99.90;;;;;;5095182;28;20143;-66
2023/01/29 08:02:37;;;;;;;9.95;5.75;;;5.50;99.90;;;;;;5106142;28;20052;-65
2023/01/29 08:05:04;;;;;;;10.38;5.70;;;5.60;99.90;;;;;;5074095;28;20123;-67
2023/01/29 08:07:31;;;;;;;8.95;5.97;;;5.60;99.90;;;;;;5097304;28;20056;-66
2023/01/29 08:09:57;;;;;;;9.00;6.47;;;5.60;99.90;;;;;;5078998;28;20465;-66
2023/01/29 08:12:24;;;;;;;11.68;5.20;;;5.60;99.90;;;;;;5111805;28;20046;-65
2023/01/29 08:14:51;;;;;;;9.45;5.30;;;5.70;99.90;;;;;;5077855;28;20048;-66
2023/01/29 08:17:18;;;;;;;9.43;5.63;;;5.70;99.90;;;;;;5108434;28;20069;-66
2023/01/29 08:19:44;;;;;;;9.85;5.05;;;5.70;99.90;;;;;;5095060;28;20056;-66
2023/01/29 08:22:11;;;;;;;10.55;6.15;;;5.70;99.90;;;;;;5081055;28;20135;-65
2023/01/29 08:24:38;;;;;;;8.77;5.57;;;5.70;99.90;;;;;;5079740;28;20401;-65
2023/01/29 08:27:25;;;;;;;10.77;5.43;;;5.70;99.90;;;;;;5080816;28;20063;-65
2023/01/29 08:29:51;;;;;;;9.05;5.03;;;5.70;99.90;;;;;;5106728;28;20047;-66
2023/01/29 08:32:18;;;;;;;17.67;6.35;;;5.70;99.90;;;;;;5104128;28;20506;-65
2023/01/29 08:34:45;;;;;;;8.23;4.78;;;5.80;99.90;;;;;;5104217;28;20436;-65
2023/01/29 08:37:11;;;;;;;9.95;4.82;;;5.80;99.90;;;;;;5109548;28;20043;-65
2023/01/29 08:39:38;;;;;;;11.18;5.60;;;5.90;99.90;;;;;;5101028;28;20340;-65
2023/01/29 08:42:05;;;;;;;9.65;5.35;;;5.90;99.90;;;;;;5089170;28;20514;-66
2023/01/29 08:44:32;;;;;;;10.30;6.70;;;6.00;99.90;;;;;;5083873;28;20059;-65
2023/01/29 08:46:58;;;;;;;15.45;6.10;;;6.10;99.90;;;;;;5092149;28;20048;-66
2023/01/29 08:49:25;;;;;;;8.93;5.88;;;6.00;99.90;;;;;;5100219;28;20134;-66
2023/01/29 08:51:55;;;;;;;15.48;6.45;;;6.00;99.90;;;;;;5111491;28;20130;-65
2023/01/29 08:54:22;;;;;;;10.55;6.38;;;6.00;99.90;;;;;;5102971;28;20048;-65
2023/01/29 08:56:50;;;;;;;13.40;6.07;;;6.10;99.90;;;;;;5111186;28;20051;-66
2023/01/29 08:59:18;;;;;;;12.55;5.80;;;6.10;99.90;;;;;;5087372;28;20071;-65
2023/01/29 09:01:44;;;;;;;10.73;5.63;;;6.10;99.90;;;;;;5091124;28;20138;-66
2023/01/29 09:04:11;;;;;;;14.13;6.70;;;6.10;99.90;;;;;;5105575;28;20549;-65
2023/01/29 09:06:38;;;;;;;12.82;7.03;;;6.10;99.90;;;;;;5110014;28;20522;-66
2023/01/29 09:09:04;;;;;;;10.80;6.32;;;6.20;99.90;;;;;;5106736;28;20051;-65
2023/01/29 09:11:31;;;;;;;12.95;6.97;;;6.20;99.90;;;;;;5072468;28;20048;-65
2023/01/29 09:13:58;;;;;;;12.77;6.93;;;6.20;99.90;;;;;;5079193;28;20048;-65
2023/01/29 09:16:25;;;;;;;10.25;6.05;;;6.20;99.90;;;;;;5087764;28;20623;-65
2023/01/29 09:18:52;;;;;;;13.48;6.45;;;6.10;99.90;;;;;;5072346;28;20411;-65
2023/01/29 09:21:19;;;;;;;16.90;7.68;;;6.20;99.90;;;;;;5071970;28;20047;-66
2023/01/29 09:23:45;;;;;;;12.85;7.43;;;6.20;99.90;;;;;;5096448;28;20079;-64
2023/01/29 09:26:12;;;;;;;13.35;6.88;;;6.20;99.90;;;;;;5101407;28;20050;-66
2023/01/29 09:28:39;;;;;;;16.27;6.45;;;6.20;99.90;;;;;;5092863;28;20124;-65
2023/01/29 09:31:05;;;;;;;12.52;7.07;;;6.20;99.90;;;;;;5102804;28;20450;-66
2023/01/29 09:33:33;;;;;;;15.65;7.03;;;6.20;99.90;;;;;;5092189;28;20052;-65
2023/01/29 09:36:02;;;;;;;16.80;6.35;;;6.20;99.90;;;;;;5088004;28;20078;-66
2023/01/29 09:38:29;;;;;;;16.08;6.97;;;6.20;99.90;;;;;;5071743;28;20064;-65
2023/01/29 09:41:03;;;;;;;13.30;6.70;;;6.30;99.90;;;;;;5062304;28;20114;-66
2023/01/29 09:43:33;;;;;;;13.10;7.80;;;6.30;99.90;;;;;;5092836;28;20135;-66
2023/01/29 09:46:03;;;;;;;15.77;6.82;;;6.30;99.90;;;;;;5100188;28;20426;-65
2023/01/29 09:48:31;;;;;;;13.55;6.43;;;6.30;99.90;;;;;;5069144;28;20046;-65
2023/01/29 09:50:59;;;;;;;16.63;6.68;;;6.40;99.90;;;;;;5066051;28;20094;-65
2023/01/29 09:53:38;;;;;;;13.25;7.03;;;6.50;99.90;;;;;;5077793;28;20441;-65
2023/01/29 09:56:13;;;;;;;12.27;6.65;;;6.40;99.90;;;;;;5094234;28;20052;-66
2023/01/29 09:58:41;;;;;;;18.77;7.30;;;6.50;99.90;;;;;;5088473;28;20499;-66
2023/01/29 10:01:20;;;;;;;12.40;6.20;;;6.50;99.90;;;;;;5101237;28;20086;-64
2023/01/29 10:04:13;;;;;;;13.40;6.03;;;6.50;99.90;;;;;;5061752;28;20057;-66
2023/01/29 10:06:42;;;;;;;12.50;5.35;;;6.60;99.90;;;;;;5067509;28;20055;-67
2023/01/29 10:09:31;;;;;;;13.05;6.32;;;6.60;99.90;;;;;;5099165;28;20502;-65
2023/01/29 10:12:13;;;;;;;14.85;6.90;;;6.70;99.90;;;;;;5103792;28;20060;-67
2023/01/29 10:15:02;;;;;;;15.70;7.22;;;6.70;99.90;;;;;;5078948;28;20051;-68
2023/01/29 10:17:51;;;;;;;9.82;6.07;;;6.70;99.90;;;;;;5103351;28;20134;-65
2023/01/29 10:20:39;;;;;;;12.50;5.97;;;6.70;99.90;;;;;;5103144;28;20059;-65
2023/01/29 10:23:30;;;;;;;11.43;6.15;;;6.70;99.90;;;;;;5098312;28;20476;-65
2023/01/29 10:26:00;;;;;;;10.73;6.57;;;6.80;99.90;;;;;;5099814;28;20130;-66
2023/01/29 10:28:36;;;;;;;13.48;6.80;;;6.80;99.90;;;;;;5070918;28;20457;-67
2023/01/29 10:31:10;;;;;;;11.02;5.93;;;6.90;99.90;;;;;;5099208;28;20110;-66
2023/01/29 10:33:42;;;;;;;13.07;6.88;;;6.80;99.90;;;;;;5078715;28;20052;-66
2023/01/29 10:36:37;;;;;;;13.35;6.70;;;6.90;99.90;;;;;;5092433;28;20032;-65
2023/01/29 10:39:04;;;;;;;9.98;6.65;;;6.80;99.90;;;;;;5064178;28;20520;-64
2023/01/29 10:42:08;;;;;;;12.60;6.97;;;6.70;99.90;;;;;;5097462;28;20028;-64
2023/01/29 10:45:14;;;;;;;14.70;7.47;;;6.60;99.90;;;;;;5110533;28;20123;-66
2023/01/29 10:47:56;;;;;;;13.70;6.40;;;6.60;99.90;;;;;;5117311;28;20040;-64
2023/01/29 10:50:49;;;;;;;15.02;6.30;;;6.60;99.90;;;;;;5110348;28;20056;-65
2023/01/29 10:53:34;;;;;;;13.27;7.93;;;6.70;99.90;;;;;;5108059;28;20062;-65
2023/01/29 10:56:33;;;;;;;11.57;7.10;;;6.70;99.90;;;;;;5110323;28;20075;-66
2023/01/29 10:59:52;;;;;;;20.20;8.35;;;6.80;99.90;;;;;;5067335;28;20040;-66
2023/01/29 11:02:20;;;;;;;16.52;8.52;;;6.80;99.90;;;;;;5092476;28;20100;-66
2023/01/29 11:04:47;;;;;;;13.32;7.63;;;6.80;99.90;;;;;;5094494;28;20048;-67
2023/01/29 11:07:15;;;;;;;17.70;8.02;;;6.80;99.90;;;;;;5112174;28;20058;-65
2023/01/29 11:10:02;;;;;;;16.25;7.90;;;6.90;99.90;;;;;;5093126;28;20079;-65
2023/01/29 11:12:30;;;;;;;10.73;6.70;;;6.90;99.90;;;;;;5109903;28;20056;-66
2023/01/29 11:15:17;;;;;;;11.85;6.28;;;6.90;99.90;;;;;;5065623;28;20048;-65
2023/01/29 11:18:01;;;;;;;16.13;7.25;;;6.80;99.90;;;;;;5097736;28;20032;-65
2023/01/29 11:20:28;;;;;;;13.45;7.45;;;6.90;99.90;;;;;;5114972;28;20058;-65
2023/01/29 11:22:55;;;;;;;16.10;7.43;;;6.80;99.90;;;;;;5090971;28;20078;-65
2023/01/29 11:25:22;;;;;;;11.30;6.35;;;6.80;99.90;;;;;;5072230;28;20112;-65
2023/01/29 11:27:53;;;;;;;18.95;11.10;;;6.80;99.90;;;;;;5109126;28;20154;-64
2023/01/29 11:30:30;;;;;;;13.93;7.82;;;6.90;99.90;;;;;;5083454;28;20060;-66
2023/01/29 11:33:12;;;;;;;13.52;6.85;;;7.00;99.90;;;;;;5102848;28;20506;-66
2023/01/29 11:35:39;;;;;;;12.20;7.07;;;7.10;99.90;;;;;;5112305;28;20099;-66
2023/01/29 11:38:18;;;;;;;18.63;8.68;;;7.10;99.90;;;;;;5112005;28;20052;-65
2023/01/29 11:40:45;;;;;;;12.15;7.25;;;7.10;99.90;;;;;;5117503;28;20056;-65
2023/01/29 11:43:27;;;;;;;11.10;6.00;;;7.20;99.90;;;;;;5085022;28;20024;-65
2023/01/29 11:45:59;;;;;;;14.32;7.05;;;7.20;99.90;;;;;;5063553;28;20113;-64
2023/01/29 11:48:46;;;;;;;13.88;6.70;;;7.30;99.90;;;;;;5063441;28;20460;-65
2023/01/29 11:51:27;;;;;;;10.02;6.13;;;7.30;99.90;;;;;;5081015;28;20166;-64
2023/01/29 11:53:59;;;;;;;10.95;5.88;;;7.40;99.90;;;;;;5080319;28;20048;-65
2023/01/29 11:56:39;;;;;;;9.65;6.53;;;7.40;99.90;;;;;;5053664;28;20044;-66
2023/01/29 11:59:12;;;;;;;10.27;7.03;;;7.40;99.90;;;;;;5075923;28;20055;-66
2023/01/29 12:01:39;;;;;;;10.52;6.13;;;7.40;99.90;;;;;;5067899;28;20045;-65
2023/01/29 12:04:21;;;;;;;10.75;5.97;;;7.40;99.90;;;;;;5086648;28;20265;-66
2023/01/29 12:06:50;;;;;;;11.70;5.85;;;7.30;99.90;;;;;;5096191;28;20200;-65
2023/01/29 12:09:21;;;;;;;10.80;6.25;;;7.30;99.90;;;;;;5077870;28;20116;-66
2023/01/29 12:11:48;;;;;;;12.32;6.18;;;7.30;99.90;;;;;;5080924;28;20112;-65
2023/01/29 12:14:35;;;;;;;11.07;7.18;;;7.30;99.90;;;;;;5112382;28;20407;-66
2023/01/29 12:17:14;;;;;;;13.27;6.18;;;7.20;99.90;;;;;;5097079;28;20054;-66
2023/01/29 12:19:42;;;;;;;10.55;5.93;;;7.30;99.90;;;;;;5087143;28;20043;-65
2023/01/29 12:22:22;;;;;;;9.10;5.80;;;7.20;99.90;;;;;;5114973;28;20418;-66
2023/01/29 12:24:54;;;;;;;17.45;6.57;;;7.30;99.90;;;;;;5099697;28;20044;-66
2023/01/29 12:27:37;;;;;;;10.07;6.15;;;7.20;99.90;;;;;;5094047;28;20081;-64
2023/01/29 12:30:16;;;;;;;12.23;6.13;;;7.20;99.90;;;;;;5089551;28;21077;-64
2023/01/29 12:33:05;;;;;;;10.52;6.05;;;7.20;99.90;;;;;;5065961;28;20063;-64
2023/01/29 12:35:34;;;;;;;11.35;5.30;;;7.30;99.90;;;;;;5080363;28;20078;-65
2023/01/29 12:38:09;;;;;;;12.27;5.43;;;7.30;99.90;;;;;;5075860;28;20085;-65
2023/01/29 12:40:48;;;;;;;11.75;5.57;;;7.30;99.90;;;;;;5089675;28;20070;-65
2023/01/29 12:43:31;;;;;;;8.55;4.53;;;7.40;99.90;;;;;;5116100;28;20095;-65
2023/01/29 12:45:58;;;;;;;9.18;5.72;;;7.50;99.90;;;;;;5087905;28;20050;-64
2023/01/29 12:48:31;;;;;;;8.35;4.40;;;7.50;99.90;;;;;;5067305;28;20058;-65
2023/01/29 12:51:04;;;;;;;9.88;4.30;;;7.50;99.90;;;;;;5084811;28;20103;-66
2023/01/29 12:53:43;;;;;;;6.88;4.05;;;7.50;99.90;;;;;;5084134;28;20485;-65
2023/01/29 12:56:14;;;;;;;6.55;3.75;;;7.50;99.90;;;;;;5080406;28;20040;-65
2023/01/29 12:58:44;;;;;;;7.10;4.00;;;7.50;99.90;;;;;;5084728;28;20100;-65
2023/01/29 13:01:30;;;;;;;5.45;3.35;;;7.60;99.90;;;;;;5074743;28;20052;-65
2023/01/29 13:04:15;;;;;;;8.63;3.47;;;7.60;99.90;;;;;;5111761;28;20094;-65
2023/01/29 13:06:49;;;;;;;5.40;3.60;;;7.60;99.90;;;;;;5094461;28;20052;-64
2023/01/29 13:09:34;;;;;;;6.43;3.30;;;7.70;99.90;;;;;;5104437;28;20028;-64
2023/01/29 13:12:16;;;;;;;6.38;3.80;;;7.70;99.90;;;;;;5098967;28;20100;-64
2023/01/29 13:14:55;;;;;;;7.93;4.13;;;7.70;99.90;;;;;;5104051;28;20052;-65
2023/01/29 13:17:29;;;;;;;7.03;3.92;;;7.70;99.90;;;;;;5122240;28;20087;-65
2023/01/29 13:19:57;;;;;;;5.18;3.22;;;7.80;99.90;;;;;;5105580;28;20083;-64
2023/01/29 13:22:25;;;;;;;7.28;4.10;;;7.80;99.90;;;;;;5089086;28;20035;-63
2023/01/29 13:24:52;;;;;;;4.93;3.28;;;7.80;99.90;;;;;;5087658;28;20091;-64
2023/01/29 13:27:32;;;;;;;5.50;3.30;;;7.90;99.90;;;;;;5106632;28;20404;-64
2023/01/29 13:29:59;;;;;;;5.82;2.83;;;7.90;99.90;;;;;;5117002;28;20047;-65
2023/01/29 13:32:27;;;;;;;6.47;3.00;;;7.90;99.90;;;;;;5107280;28;20024;-65
2023/01/29 13:34:56;;;;;;;6.57;3.50;;;8.00;99.90;;;;;;5090481;28;20051;-64
2023/01/29 13:37:50;;;;;;;6.75;3.83;;;8.00;99.90;;;;;;5082862;28;20052;-65
2023/01/29 13:40:23;;;;;;;5.63;3.00;;;8.00;99.90;;;;;;5084730;28;20047;-64
2023/01/29 13:42:52;;;;;;;3.97;2.83;;;8.00;99.90;;;;;;5085870;28;20048;-64